Time;durP1;ratioP1;P1;durP2;ratioP2;P2;SDS_P1;SDS_P2;PMS_P1;PMS_P2;Temp;Humidity;BMP_temperature;BMP_pressure;BME280_temperature;BME280_humidity;BME280_pressure;Samples;Min_cycle;Max_cycle;Signal;HPM_P1;HPM_P2
2021/04/28 00:01:13;;;;;;;6.73;3.60;;;;;;;;;;4989389;28;20221;-67
2021/04/28 00:03:38;;;;;;;5.20;3.47;;;;;;;;;;4993575;28;20215;-66
2021/04/28 00:06:04;;;;;;;11.63;3.80;;;;;;;;;;4979988;28;20202;-67
2021/04/28 00:08:29;;;;;;;6.43;3.33;;;;;;;;;;4991906;28;20218;-67
2021/04/28 00:10:55;;;;;;;4.77;3.60;;;;;;;;;;4986867;28;20198;-67
2021/04/28 00:13:20;;;;;;;6.07;3.77;;;;;;;;;;4989362;28;20253;-68
2021/04/28 00:15:50;;;;;;;7.47;3.77;;;;;;;;;;4984582;28;20616;-68
2021/04/28 00:18:17;;;;;;;10.33;4.00;;;;;;;;;;4990023;28;20555;-68
2021/04/28 00:20:45;;;;;;;9.73;4.30;;;;;;;;;;4974590;28;20659;-67
2021/04/28 00:23:10;;;;;;;8.17;4.20;;;;;;;;;;4990662;28;20186;-67
2021/04/28 00:25:37;;;;;;;5.40;3.67;;;;;;;;;;4980671;28;20939;-67
2021/04/28 00:28:04;;;;;;;5.63;3.77;;;;;;;;;;4989244;28;20631;-67
2021/04/28 00:30:29;;;;;;;8.17;3.60;;;;;;;;;;4984723;28;20191;-67
2021/04/28 00:32:55;;;;;;;5.93;3.37;;;;;;;;;;4987454;28;20239;-67
2021/04/28 00:35:22;;;;;;;7.13;3.57;;;;;;;;;;4992407;28;20195;-68
2021/04/28 00:37:49;;;;;;;7.13;4.10;;;;;;;;;;4984421;28;20654;-67
2021/04/28 00:40:31;;;;;;;7.10;3.90;;;;;;;;;;4992188;28;20911;-67
2021/04/28 00:42:57;;;;;;;6.47;4.17;;;;;;;;;;4984240;28;20268;-67
2021/04/28 00:45:25;;;;;;;6.03;3.60;;;;;;;;;;4996522;28;20202;-67
2021/04/28 00:47:52;;;;;;;6.77;3.73;;;;;;;;;;4984129;28;20253;-67
2021/04/28 00:50:23;;;;;;;7.27;3.57;;;;;;;;;;4986552;28;20281;-66
2021/04/28 00:52:48;;;;;;;5.30;3.70;;;;;;;;;;4987212;28;20190;-67
2021/04/28 00:55:14;;;;;;;5.37;3.33;;;;;;;;;;4994998;28;20217;-67
2021/04/28 00:57:40;;;;;;;9.67;3.93;;;;;;;;;;4988250;28;20191;-67
2021/04/28 01:00:12;;;;;;;6.97;3.63;;;;;;;;;;4994118;28;20190;-67
2021/04/28 01:02:37;;;;;;;5.77;3.40;;;;;;;;;;4988122;28;20239;-67
2021/04/28 01:05:05;;;;;;;6.93;3.53;;;;;;;;;;5006029;28;22097;-67
2021/04/28 01:07:31;;;;;;;12.97;4.07;;;;;;;;;;4982244;28;20236;-67
2021/04/28 01:09:57;;;;;;;7.17;3.40;;;;;;;;;;5000401;28;20593;-67
2021/04/28 01:12:23;;;;;;;5.97;3.57;;;;;;;;;;4993422;28;20564;-67
2021/04/28 01:14:50;;;;;;;5.90;3.57;;;;;;;;;;4984576;28;20191;-67
2021/04/28 01:17:16;;;;;;;8.03;3.80;;;;;;;;;;4986935;28;20186;-67
2021/04/28 01:19:42;;;;;;;7.60;3.33;;;;;;;;;;4986998;28;20654;-67
2021/04/28 01:22:08;;;;;;;5.43;3.07;;;;;;;;;;4990741;28;21540;-67
2021/04/28 01:24:33;;;;;;;7.30;3.60;;;;;;;;;;4985402;28;20203;-67
2021/04/28 01:27:02;;;;;;;6.23;3.63;;;;;;;;;;4989652;28;20195;-67
2021/04/28 01:29:28;;;;;;;7.60;3.60;;;;;;;;;;4985329;28;20253;-67
2021/04/28 01:31:56;;;;;;;7.43;3.80;;;;;;;;;;4992443;28;20219;-67
2021/04/28 01:34:22;;;;;;;9.53;3.83;;;;;;;;;;4987769;28;20190;-67
2021/04/28 01:36:48;;;;;;;5.50;3.47;;;;;;;;;;4995710;28;20189;-67
2021/04/28 01:39:16;;;;;;;5.43;3.63;;;;;;;;;;4983672;28;20198;-67
2021/04/28 01:41:43;;;;;;;6.07;3.93;;;;;;;;;;4990406;28;20211;-67
2021/04/28 01:44:10;;;;;;;5.73;3.33;;;;;;;;;;4997222;28;20187;-67
2021/04/28 01:46:37;;;;;;;7.90;3.93;;;;;;;;;;4984832;28;20258;-67
2021/04/28 01:49:04;;;;;;;5.33;3.50;;;;;;;;;;4994990;28;20265;-67
2021/04/28 01:51:30;;;;;;;5.07;3.57;;;;;;;;;;4983109;28;20199;-67
2021/04/28 01:53:56;;;;;;;6.20;3.63;;;;;;;;;;4991459;28;20618;-67
2021/04/28 01:56:22;;;;;;;6.47;3.63;;;;;;;;;;4983630;28;20194;-67
2021/04/28 01:58:48;;;;;;;6.17;3.57;;;;;;;;;;4994726;28;20588;-67
2021/04/28 02:01:15;;;;;;;6.80;3.47;;;;;;;;;;4983662;28;20317;-67
2021/04/28 02:03:40;;;;;;;4.33;3.30;;;;;;;;;;4990578;28;20218;-67
2021/04/28 02:06:06;;;;;;;7.70;3.87;;;;;;;;;;4989693;28;20179;-67
2021/04/28 02:08:33;;;;;;;6.43;3.60;;;;;;;;;;4991189;28;20197;-67
2021/04/28 02:10:59;;;;;;;9.00;3.33;;;;;;;;;;4988315;28;20222;-67
2021/04/28 02:13:24;;;;;;;8.40;3.67;;;;;;;;;;4991567;28;20209;-67
2021/04/28 02:15:51;;;;;;;5.87;3.80;;;;;;;;;;4992910;28;20182;-67
2021/04/28 02:18:17;;;;;;;5.53;3.60;;;;;;;;;;4990382;28;20197;-68
2021/04/28 02:20:44;;;;;;;6.70;3.83;;;;;;;;;;4996167;28;20198;-67
2021/04/28 02:23:10;;;;;;;6.57;3.97;;;;;;;;;;4982803;28;20184;-67
2021/04/28 02:25:36;;;;;;;5.50;3.27;;;;;;;;;;4995911;28;20240;-67
2021/04/28 02:28:01;;;;;;;5.73;3.63;;;;;;;;;;4982424;28;20191;-67
2021/04/28 02:30:29;;;;;;;7.17;3.23;;;;;;;;;;4990835;28;20192;-67
2021/04/28 02:32:55;;;;;;;7.60;3.37;;;;;;;;;;4985825;28;20210;-68
2021/04/28 02:35:24;;;;;;;9.07;4.50;;;;;;;;;;4997168;28;20206;-67
2021/04/28 02:37:57;;;;;;;5.33;3.87;;;;;;;;;;4982244;28;20198;-67
2021/04/28 02:40:23;;;;;;;7.23;3.70;;;;;;;;;;4995731;28;20309;-67
2021/04/28 02:42:48;;;;;;;10.30;3.83;;;;;;;;;;4985114;28;20446;-67
2021/04/28 02:45:16;;;;;;;4.93;3.17;;;;;;;;;;4990292;28;20238;-67
2021/04/28 02:47:43;;;;;;;4.43;3.20;;;;;;;;;;4981380;28;20648;-67
2021/04/28 02:50:11;;;;;;;4.83;3.50;;;;;;;;;;4995645;28;20642;-67
2021/04/28 02:52:36;;;;;;;5.43;3.60;;;;;;;;;;4991761;28;20187;-67
2021/04/28 02:55:04;;;;;;;8.50;3.73;;;;;;;;;;4986477;28;20191;-67
2021/04/28 02:57:30;;;;;;;5.67;3.10;;;;;;;;;;4992035;28;20257;-68
2021/04/28 02:59:56;;;;;;;7.33;3.80;;;;;;;;;;4983880;28;20204;-68
2021/04/28 03:02:21;;;;;;;11.13;3.70;;;;;;;;;;4995385;28;20230;-68
2021/04/28 03:04:49;;;;;;;7.23;3.77;;;;;;;;;;4984766;28;21014;-68
2021/04/28 03:07:15;;;;;;;6.67;3.73;;;;;;;;;;4988264;28;20187;-68
2021/04/28 03:09:41;;;;;;;5.53;3.80;;;;;;;;;;4983343;28;20198;-68
2021/04/28 03:12:09;;;;;;;6.80;4.20;;;;;;;;;;4994467;28;20183;-68
2021/04/28 03:14:34;;;;;;;12.67;3.93;;;;;;;;;;4982125;28;20226;-68
2021/04/28 03:16:59;;;;;;;8.50;3.87;;;;;;;;;;4991676;28;20308;-67
2021/04/28 03:19:25;;;;;;;5.97;3.70;;;;;;;;;;4984455;28;20226;-68
2021/04/28 03:21:51;;;;;;;8.43;4.00;;;;;;;;;;4992866;28;20215;-68
2021/04/28 03:24:19;;;;;;;9.57;4.03;;;;;;;;;;4985828;28;20198;-68
2021/04/28 03:26:45;;;;;;;9.60;3.90;;;;;;;;;;4989977;28;20194;-68
2021/04/28 03:29:11;;;;;;;7.67;4.37;;;;;;;;;;4995732;28;20191;-68
2021/04/28 03:31:36;;;;;;;4.90;4.10;;;;;;;;;;4986841;28;20281;-68
2021/04/28 03:34:02;;;;;;;5.87;4.07;;;;;;;;;;4990564;28;20214;-68
2021/04/28 03:36:28;;;;;;;7.57;3.90;;;;;;;;;;4984487;28;20197;-68
2021/04/28 03:38:53;;;;;;;8.70;4.00;;;;;;;;;;4990622;28;20196;-68
2021/04/28 03:41:19;;;;;;;5.87;4.33;;;;;;;;;;4987717;28;20697;-68
2021/04/28 03:43:44;;;;;;;5.30;3.70;;;;;;;;;;4993062;28;21482;-68
2021/04/28 03:46:10;;;;;;;7.60;4.27;;;;;;;;;;4982165;28;20289;-68
2021/04/28 03:48:37;;;;;;;6.93;3.43;;;;;;;;;;4993659;28;20187;-68
2021/04/28 03:51:03;;;;;;;6.43;3.80;;;;;;;;;;4981769;28;20183;-68
2021/04/28 03:53:28;;;;;;;7.90;3.50;;;;;;;;;;4988628;28;20575;-69
2021/04/28 03:55:53;;;;;;;6.93;3.80;;;;;;;;;;4992408;28;20535;-68
2021/04/28 03:58:19;;;;;;;5.83;3.77;;;;;;;;;;4983016;28;20194;-68
2021/04/28 04:00:44;;;;;;;7.70;4.23;;;;;;;;;;4991676;28;20190;-68
2021/04/28 04:03:09;;;;;;;5.70;3.83;;;;;;;;;;4986771;28;20210;-68
2021/04/28 04:05:35;;;;;;;9.23;4.33;;;;;;;;;;4989105;28;20261;-68
2021/04/28 04:08:00;;;;;;;7.77;4.07;;;;;;;;;;4985752;28;20203;-69
2021/04/28 04:10:26;;;;;;;9.93;3.77;;;;;;;;;;4991153;28;20313;-69
2021/04/28 04:12:51;;;;;;;6.47;4.07;;;;;;;;;;4988596;28;20277;-68
2021/04/28 04:15:16;;;;;;;8.13;3.90;;;;;;;;;;4991031;28;20283;-66
2021/04/28 04:17:42;;;;;;;8.77;4.20;;;;;;;;;;4983410;28;20663;-68
2021/04/28 04:20:08;;;;;;;8.70;4.40;;;;;;;;;;4989456;28;20183;-68
2021/04/28 04:22:33;;;;;;;6.40;4.00;;;;;;;;;;4992225;28;20255;-68
2021/04/28 04:24:59;;;;;;;7.03;4.10;;;;;;;;;;4993406;28;20266;-68
2021/04/28 04:27:24;;;;;;;6.73;4.10;;;;;;;;;;4993610;28;20189;-69
2021/04/28 04:29:50;;;;;;;9.27;3.97;;;;;;;;;;4984742;28;20194;-68
2021/04/28 04:32:15;;;;;;;7.20;4.40;;;;;;;;;;4989798;28;20198;-68
2021/04/28 04:34:41;;;;;;;6.57;3.80;;;;;;;;;;4981535;28;20195;-69
2021/04/28 04:37:06;;;;;;;6.77;4.20;;;;;;;;;;4993324;28;20310;-69
2021/04/28 04:39:32;;;;;;;7.40;4.93;;;;;;;;;;4980795;28;20563;-68
2021/04/28 04:41:58;;;;;;;11.37;4.27;;;;;;;;;;4993771;28;20285;-67
2021/04/28 04:44:23;;;;;;;9.50;4.00;;;;;;;;;;4982005;28;20333;-67
2021/04/28 04:46:48;;;;;;;6.40;4.23;;;;;;;;;;4994977;28;20231;-67
2021/04/28 04:49:14;;;;;;;8.10;4.57;;;;;;;;;;4984122;28;20655;-67
2021/04/28 04:51:40;;;;;;;7.93;4.40;;;;;;;;;;4994622;28;20186;-67
2021/04/28 04:54:06;;;;;;;5.60;4.07;;;;;;;;;;4985658;28;20191;-67
2021/04/28 04:56:31;;;;;;;7.53;4.20;;;;;;;;;;4991885;28;20217;-67
2021/04/28 04:58:57;;;;;;;6.30;3.90;;;;;;;;;;4994237;28;20187;-67
2021/04/28 05:01:22;;;;;;;8.47;5.47;;;;;;;;;;4983475;28;20629;-68
2021/04/28 05:03:47;;;;;;;7.40;4.50;;;;;;;;;;4987661;28;20263;-68
2021/04/28 05:06:13;;;;;;;8.50;4.30;;;;;;;;;;4980853;28;20566;-68
2021/04/28 05:08:38;;;;;;;10.17;4.47;;;;;;;;;;4990525;28;20209;-68
2021/04/28 05:11:03;;;;;;;9.77;4.40;;;;;;;;;;4986093;28;20194;-68
2021/04/28 05:13:29;;;;;;;7.87;4.00;;;;;;;;;;4992287;28;20555;-68
2021/04/28 05:15:54;;;;;;;8.53;5.07;;;;;;;;;;4982471;28;20556;-68
2021/04/28 05:18:20;;;;;;;10.63;4.60;;;;;;;;;;4991433;28;20195;-68
2021/04/28 05:20:45;;;;;;;7.30;4.43;;;;;;;;;;4981151;28;20195;-68
2021/04/28 05:23:10;;;;;;;6.70;4.20;;;;;;;;;;4990680;28;20195;-67
2021/04/28 05:25:36;;;;;;;7.50;4.47;;;;;;;;;;4981580;28;20191;-67
2021/04/28 05:28:01;;;;;;;6.43;4.33;;;;;;;;;;4993414;28;20272;-67
2021/04/28 05:30:27;;;;;;;8.53;4.53;;;;;;;;;;4989900;28;20195;-67
2021/04/28 05:32:53;;;;;;;10.17;5.03;;;;;;;;;;4986610;28;20191;-67
2021/04/28 05:35:18;;;;;;;6.43;4.27;;;;;;;;;;4989218;28;20194;-67
2021/04/28 05:37:44;;;;;;;6.50;3.70;;;;;;;;;;4988333;28;20201;-67
2021/04/28 05:40:10;;;;;;;9.27;4.30;;;;;;;;;;4994864;28;20715;-67
2021/04/28 05:42:36;;;;;;;7.60;4.07;;;;;;;;;;4989366;28;20268;-67
2021/04/28 05:45:04;;;;;;;6.33;4.17;;;;;;;;;;4990135;28;20616;-67
2021/04/28 05:47:30;;;;;;;6.67;4.13;;;;;;;;;;4986550;28;20230;-67
2021/04/28 05:49:55;;;;;;;7.33;4.43;;;;;;;;;;4991690;28;20250;-68
2021/04/28 05:52:20;;;;;;;6.70;4.07;;;;;;;;;;4983159;28;20230;-67
2021/04/28 05:54:47;;;;;;;7.30;4.30;;;;;;;;;;4991587;28;20265;-67
2021/04/28 05:57:14;;;;;;;7.17;3.67;;;;;;;;;;4987315;28;20189;-68
2021/04/28 05:59:40;;;;;;;6.70;4.27;;;;;;;;;;4993923;28;20205;-67
2021/04/28 06:02:05;;;;;;;9.30;3.60;;;;;;;;;;4994120;28;20206;-68
2021/04/28 06:04:30;;;;;;;9.03;4.30;;;;;;;;;;4985670;28;20187;-68
2021/04/28 06:06:55;;;;;;;6.07;4.17;;;;;;;;;;4997889;28;20195;-68
2021/04/28 06:09:21;;;;;;;9.27;4.10;;;;;;;;;;4988293;28;20553;-68
2021/04/28 06:11:46;;;;;;;8.97;4.57;;;;;;;;;;4991987;28;20183;-67
2021/04/28 06:14:11;;;;;;;7.50;3.97;;;;;;;;;;4985840;28;20569;-69
2021/04/28 06:16:37;;;;;;;7.20;3.93;;;;;;;;;;4991056;28;20192;-68
2021/04/28 06:19:02;;;;;;;8.77;4.37;;;;;;;;;;4983263;28;20205;-67
2021/04/28 06:21:28;;;;;;;7.37;3.93;;;;;;;;;;4992309;28;20673;-68
2021/04/28 06:23:53;;;;;;;10.50;4.10;;;;;;;;;;4989049;28;21681;-68
2021/04/28 06:26:19;;;;;;;11.00;4.10;;;;;;;;;;4989675;28;20523;-67
2021/04/28 06:28:44;;;;;;;9.47;4.23;;;;;;;;;;4994767;28;20242;-68
2021/04/28 06:31:11;;;;;;;6.30;4.10;;;;;;;;;;4990086;28;20203;-68
2021/04/28 06:33:36;;;;;;;8.57;3.70;;;;;;;;;;4990914;28;20187;-68
2021/04/28 06:36:02;;;;;;;8.83;4.10;;;;;;;;;;4986217;28;20659;-68
2021/04/28 06:38:27;;;;;;;6.40;3.93;;;;;;;;;;4995277;28;20222;-68
2021/04/28 06:40:53;;;;;;;4.43;3.53;;;;;;;;;;4985920;28;20261;-68
2021/04/28 06:43:18;;;;;;;7.20;4.03;;;;;;;;;;4990632;28;20264;-68
2021/04/28 06:45:44;;;;;;;5.93;4.10;;;;;;;;;;4985013;28;20191;-68
2021/04/28 06:48:10;;;;;;;7.90;3.80;;;;;;;;;;4995072;28;20192;-68
2021/04/28 06:50:35;;;;;;;8.90;4.50;;;;;;;;;;4989593;28;21265;-68
2021/04/28 06:53:01;;;;;;;7.40;4.03;;;;;;;;;;5002430;28;20617;-68
2021/04/28 06:55:26;;;;;;;8.93;4.10;;;;;;;;;;4984686;28;20198;-68
2021/04/28 06:57:55;;;;;;;12.53;4.13;;;;;;;;;;5000127;28;20377;-68
2021/04/28 07:00:23;;;;;;;7.53;4.00;;;;;;;;;;4984598;28;20195;-68
2021/04/28 07:02:48;;;;;;;7.87;4.40;;;;;;;;;;5000547;28;20285;-68
2021/04/28 07:05:14;;;;;;;7.60;4.20;;;;;;;;;;4995010;28;20228;-68
2021/04/28 07:07:39;;;;;;;7.57;3.77;;;;;;;;;;4990079;28;20216;-68
2021/04/28 07:10:06;;;;;;;8.70;4.00;;;;;;;;;;4993706;28;20228;-68
2021/04/28 07:12:32;;;;;;;7.70;4.20;;;;;;;;;;4992803;28;20292;-68
2021/04/28 07:14:57;;;;;;;6.67;4.07;;;;;;;;;;4993002;28;20606;-68
2021/04/28 07:17:22;;;;;;;13.25;4.60;;;;;;;;;;4994502;28;20657;-68
2021/04/28 07:19:48;;;;;;;9.38;3.83;;;;;;;;;;4990522;28;20591;-67
2021/04/28 07:22:13;;;;;;;8.35;4.30;;;;;;;;;;4987108;28;20734;-68
2021/04/28 07:24:38;;;;;;;6.20;4.22;;;;;;;;;;4996452;28;20191;-68
2021/04/28 07:27:04;;;;;;;8.13;4.03;;;;;;;;;;4985885;28;20278;-68
2021/04/28 07:29:29;;;;;;;6.90;4.45;;;;;;;;;;4989676;28;20213;-68
2021/04/28 07:31:54;;;;;;;7.47;4.72;;;;;;;;;;4983181;28;20552;-68
2021/04/28 07:34:20;;;;;;;7.70;3.88;;;;;;;;;;4996045;28;20198;-68
2021/04/28 07:36:45;;;;;;;8.77;3.95;;;;;;;;;;4996333;28;20166;-68
2021/04/28 07:39:12;;;;;;;8.52;4.30;;;;;;;;;;4992190;28;20178;-68
2021/04/28 07:41:37;;;;;;;8.13;4.13;;;;;;;;;;4989462;28;20314;-68
2021/04/28 07:44:03;;;;;;;7.88;4.55;;;;;;;;;;4984775;28;20273;-68
2021/04/28 07:46:28;;;;;;;7.20;4.03;;;;;;;;;;4998188;28;20237;-68
2021/04/28 07:48:54;;;;;;;4.50;3.20;;;;;;;;;;4989582;28;20194;-68
2021/04/28 07:51:20;;;;;;;5.57;4.00;;;;;;;;;;4987657;28;20266;-68
2021/04/28 07:53:45;;;;;;;6.65;4.57;;;;;;;;;;4982039;28;20200;-68
2021/04/28 07:56:10;;;;;;;6.82;4.13;;;;;;;;;;4994844;28;20194;-68
2021/04/28 07:58:36;;;;;;;8.07;4.40;;;;;;;;;;4988157;28;20490;-68
2021/04/28 08:01:01;;;;;;;8.10;4.50;;;;;;;;;;4991452;28;20190;-68
2021/04/28 08:03:27;;;;;;;9.02;4.85;;;;;;;;;;4992184;28;20214;-68
2021/04/28 08:05:52;;;;;;;6.63;4.22;;;;;;;;;;4992038;28;20197;-68
2021/04/28 08:08:17;;;;;;;6.32;4.40;;;;;;;;;;4995128;28;20195;-68
2021/04/28 08:10:43;;;;;;;8.13;4.63;;;;;;;;;;4983580;28;20185;-68
2021/04/28 08:13:10;;;;;;;5.85;4.28;;;;;;;;;;4996614;28;20183;-68
2021/04/28 08:15:37;;;;;;;8.70;4.50;;;;;;;;;;4982241;28;20195;-67
2021/04/28 08:18:03;;;;;;;10.35;4.40;;;;;;;;;;4990271;28;20634;-68
2021/04/28 08:20:29;;;;;;;10.45;4.80;;;;;;;;;;4983514;28;20206;-68
2021/04/28 08:22:54;;;;;;;6.60;3.97;;;;;;;;;;4994650;28;20822;-68
2021/04/28 08:25:21;;;;;;;9.07;4.10;;;;;;;;;;4986171;28;20309;-68
2021/04/28 08:27:46;;;;;;;17.08;4.63;;;;;;;;;;4991353;28;20179;-68
2021/04/28 08:30:13;;;;;;;9.07;4.35;;;;;;;;;;4980815;28;20201;-68
2021/04/28 08:32:39;;;;;;;9.80;5.10;;;;;;;;;;4996993;28;20186;-68
2021/04/28 08:35:06;;;;;;;6.18;4.03;;;;;;;;;;4983027;28;20194;-68
2021/04/28 08:37:31;;;;;;;6.15;4.40;;;;;;;;;;4991866;28;20209;-68
2021/04/28 08:39:57;;;;;;;8.13;4.65;;;;;;;;;;4989854;28;20703;-68
2021/04/28 08:42:22;;;;;;;11.90;5.28;;;;;;;;;;4986020;28;20883;-68
2021/04/28 08:44:47;;;;;;;8.68;4.65;;;;;;;;;;4990212;28;20196;-68
2021/04/28 08:47:14;;;;;;;9.10;4.55;;;;;;;;;;4985301;28;20314;-68
2021/04/28 08:49:40;;;;;;;7.22;4.90;;;;;;;;;;4992967;28;20233;-67
2021/04/28 08:52:06;;;;;;;9.25;4.28;;;;;;;;;;4982264;28;20194;-67
2021/04/28 08:54:32;;;;;;;16.15;4.88;;;;;;;;;;4990152;28;20555;-67
2021/04/28 08:57:00;;;;;;;6.40;4.35;;;;;;;;;;4986210;28;20282;-67
2021/04/28 08:59:26;;;;;;;11.77;6.03;;;;;;;;;;4987067;28;20214;-67
2021/04/28 09:01:52;;;;;;;6.25;4.68;;;;;;;;;;4981871;28;20272;-67
2021/04/28 09:04:24;;;;;;;12.32;5.28;;;;;;;;;;4993274;28;20192;-67
2021/04/28 09:06:51;;;;;;;8.55;5.20;;;;;;;;;;4982681;28;20581;-68
2021/04/28 09:09:19;;;;;;;7.95;5.07;;;;;;;;;;4991522;28;20191;-68
2021/04/28 09:11:53;;;;;;;12.07;5.05;;;;;;;;;;4987499;28;20182;-68
2021/04/28 09:14:24;;;;;;;6.63;4.97;;;;;;;;;;4997514;28;20278;-68
2021/04/28 09:16:52;;;;;;;8.10;5.30;;;;;;;;;;5000999;28;20190;-68
2021/04/28 09:19:31;;;;;;;10.57;5.05;;;;;;;;;;4987513;28;20654;-68
2021/04/28 09:22:04;;;;;;;8.32;5.05;;;;;;;;;;4992711;28;20199;-68
2021/04/28 09:24:32;;;;;;;11.88;5.50;;;;;;;;;;4990968;28;20198;-68
2021/04/28 09:26:59;;;;;;;9.65;5.50;;;;;;;;;;5004342;28;20181;-68
2021/04/28 09:29:30;;;;;;;10.48;5.15;;;;;;;;;;4988944;28;20671;-68
2021/04/28 09:31:57;;;;;;;10.20;6.07;;;;;;;;;;5003907;28;20195;-68
2021/04/28 09:34:27;;;;;;;6.93;5.13;;;;;;;;;;4987726;28;20187;-68
2021/04/28 09:37:17;;;;;;;10.25;5.38;;;;;;;;;;4994714;28;20673;-68
2021/04/28 09:39:52;;;;;;;10.65;5.88;;;;;;;;;;4988279;28;20222;-68
2021/04/28 09:42:19;;;;;;;10.48;5.97;;;;;;;;;;4992559;28;20206;-68
2021/04/28 09:44:49;;;;;;;6.65;5.57;;;;;;;;;;4988914;28;20195;-68
2021/04/28 09:47:19;;;;;;;9.60;5.20;;;;;;;;;;4995020;28;20587;-68
2021/04/28 09:50:03;;;;;;;13.13;6.22;;;;;;;;;;4989280;28;20191;-68
2021/04/28 09:52:31;;;;;;;11.48;6.18;;;;;;;;;;4998104;28;20174;-68
2021/04/28 09:55:08;;;;;;;8.90;6.20;;;;;;;;;;4986866;28;20313;-68
2021/04/28 09:57:48;;;;;;;10.27;6.03;;;;;;;;;;5003012;28;20175;-68
2021/04/28 10:00:28;;;;;;;9.43;6.50;;;;;;;;;;4985577;28;20191;-68
2021/04/28 10:02:57;;;;;;;9.98;6.68;;;;;;;;;;4994611;28;20226;-67
2021/04/28 10:05:34;;;;;;;9.07;6.57;;;;;;;;;;4991681;28;20266;-69
2021/04/28 10:08:14;;;;;;;12.50;6.60;;;;;;;;;;4993745;28;20229;-67
2021/04/28 10:10:41;;;;;;;8.82;6.38;;;;;;;;;;4991213;28;20229;-67
2021/04/28 10:13:06;;;;;;;9.07;5.80;;;;;;;;;;4998038;28;20183;-68
2021/04/28 10:15:33;;;;;;;12.40;7.28;;;;;;;;;;4984259;28;20197;-67
2021/04/28 10:18:03;;;;;;;10.85;6.38;;;;;;;;;;4989580;28;20195;-67
2021/04/28 10:20:33;;;;;;;11.07;6.18;;;;;;;;;;4987411;28;20210;-68
2021/04/28 10:23:10;;;;;;;11.93;7.50;;;;;;;;;;4992100;28;20198;-67
2021/04/28 10:25:36;;;;;;;13.00;6.97;;;;;;;;;;4989598;28;20640;-67
2021/04/28 10:28:06;;;;;;;11.00;7.07;;;;;;;;;;5003940;28;20237;-67
2021/04/28 10:30:35;;;;;;;7.75;6.22;;;;;;;;;;4990495;28;20218;-68
2021/04/28 10:33:04;;;;;;;8.10;6.47;;;;;;;;;;4992792;28;20522;-68
2021/04/28 10:35:30;;;;;;;13.25;7.07;;;;;;;;;;4997446;28;20175;-68
2021/04/28 10:37:57;;;;;;;9.45;6.97;;;;;;;;;;4988324;28;20202;-68
2021/04/28 10:40:24;;;;;;;11.98;7.25;;;;;;;;;;4995710;28;20187;-68
2021/04/28 10:42:50;;;;;;;9.60;7.32;;;;;;;;;;4987391;28;20677;-68
2021/04/28 10:45:18;;;;;;;10.85;6.82;;;;;;;;;;4985975;28;20187;-67
2021/04/28 10:47:48;;;;;;;9.68;7.20;;;;;;;;;;4984621;28;20247;-67
2021/04/28 10:50:36;;;;;;;12.07;7.55;;;;;;;;;;4995245;28;20502;-67
2021/04/28 10:53:17;;;;;;;15.52;9.18;;;;;;;;;;4982173;28;20197;-67
2021/04/28 10:56:05;;;;;;;9.90;7.15;;;;;;;;;;4992985;28;20551;-67
2021/04/28 10:58:31;;;;;;;10.27;7.15;;;;;;;;;;4987797;28;20192;-67
2021/04/28 11:01:04;;;;;;;11.45;7.13;;;;;;;;;;4994926;28;20223;-67
2021/04/28 11:03:36;;;;;;;10.55;7.25;;;;;;;;;;4987897;28;20214;-68
2021/04/28 11:06:20;;;;;;;11.52;7.85;;;;;;;;;;4997114;28;20199;-67
2021/04/28 11:09:06;;;;;;;12.07;7.97;;;;;;;;;;4982582;28;20191;-67
2021/04/28 11:11:35;;;;;;;11.50;7.68;;;;;;;;;;4997011;28;20183;-68
2021/04/28 11:14:10;;;;;;;11.93;7.40;;;;;;;;;;4988440;28;20592;-69
2021/04/28 11:16:47;;;;;;;10.98;7.90;;;;;;;;;;4997356;28;20178;-67
2021/04/28 11:19:32;;;;;;;13.02;8.10;;;;;;;;;;4985963;28;20279;-68
2021/04/28 11:22:07;;;;;;;14.00;8.10;;;;;;;;;;4997261;28;20214;-69
2021/04/28 11:24:51;;;;;;;11.80;8.05;;;;;;;;;;4984628;28;20195;-67
2021/04/28 11:27:38;;;;;;;11.32;7.90;;;;;;;;;;4991593;28;20194;-67
2021/04/28 11:30:05;;;;;;;13.35;8.57;;;;;;;;;;4981948;28;20233;-67
2021/04/28 11:32:30;;;;;;;13.93;8.27;;;;;;;;;;4998593;28;20608;-68
2021/04/28 11:34:56;;;;;;;11.18;7.85;;;;;;;;;;4980434;28;20270;-70
2021/04/28 11:37:21;;;;;;;10.77;8.43;;;;;;;;;;4993912;28;20259;-67
2021/04/28 11:39:47;;;;;;;10.93;7.80;;;;;;;;;;4986807;28;20493;-68
2021/04/28 11:42:16;;;;;;;16.05;8.50;;;;;;;;;;4987222;28;20718;-68
2021/04/28 11:45:08;;;;;;;15.10;8.88;;;;;;;;;;4988210;28;20182;-68
2021/04/28 11:47:33;;;;;;;13.45;8.15;;;;;;;;;;4984819;28;20223;-68
2021/04/28 11:49:59;;;;;;;11.90;8.10;;;;;;;;;;4989563;28;20171;-68
2021/04/28 11:52:25;;;;;;;14.10;8.73;;;;;;;;;;4992098;28;20325;-68
2021/04/28 11:54:56;;;;;;;11.27;8.95;;;;;;;;;;4995634;28;20186;-68
2021/04/28 11:57:29;;;;;;;10.98;8.15;;;;;;;;;;4983045;28;20187;-68
2021/04/28 12:00:11;;;;;;;10.13;8.30;;;;;;;;;;4990761;28;20199;-68
2021/04/28 12:02:37;;;;;;;11.68;8.05;;;;;;;;;;4987645;28;20698;-68
2021/04/28 12:05:04;;;;;;;15.52;9.20;;;;;;;;;;4992041;28;20236;-68
2021/04/28 12:07:30;;;;;;;13.20;8.60;;;;;;;;;;4985590;28;20190;-67
2021/04/28 12:09:55;;;;;;;11.80;9.20;;;;;;;;;;5003916;28;20187;-68
2021/04/28 12:12:33;;;;;;;11.65;8.52;;;;;;;;;;4982911;28;20183;-68
2021/04/28 12:15:04;;;;;;;14.95;8.07;;;;;;;;;;4991594;28;20218;-68
2021/04/28 12:17:32;;;;;;;13.23;8.77;;;;;;;;;;4984195;28;20642;-68
2021/04/28 12:19:57;;;;;;;12.07;8.85;;;;;;;;;;4988477;28;20182;-68
2021/04/28 12:22:24;;;;;;;15.38;8.80;;;;;;;;;;4984912;28;20731;-68
2021/04/28 12:24:51;;;;;;;12.52;9.05;;;;;;;;;;4996651;28;20633;-68
2021/04/28 12:27:28;;;;;;;13.13;8.27;;;;;;;;;;4985016;28;20648;-68
2021/04/28 12:30:07;;;;;;;14.82;10.27;;;;;;;;;;5001090;28;20626;-69
2021/04/28 12:32:36;;;;;;;13.52;10.18;;;;;;;;;;4984964;28;20280;-68
2021/04/28 12:35:21;;;;;;;13.55;9.85;;;;;;;;;;4999101;28;20642;-68
2021/04/28 12:38:12;;;;;;;12.52;9.13;;;;;;;;;;4985835;28;20187;-69
2021/04/28 12:41:05;;;;;;;11.30;9.43;;;;;;;;;;4995052;28;20559;-69
2021/04/28 12:43:34;;;;;;;11.90;9.10;;;;;;;;;;4984459;28;20197;-69
2021/04/28 12:46:11;;;;;;;11.27;8.60;;;;;;;;;;4995815;28;20557;-69
2021/04/28 12:49:01;;;;;;;11.65;9.15;;;;;;;;;;4987197;28;20223;-68
2021/04/28 12:51:28;;;;;;;17.85;9.93;;;;;;;;;;4997311;28;20183;-69
2021/04/28 12:53:53;;;;;;;12.65;9.55;;;;;;;;;;4989923;28;20193;-68
2021/04/28 12:56:19;;;;;;;13.50;10.40;;;;;;;;;;5002547;28;20199;-68
2021/04/28 12:58:46;;;;;;;15.02;9.68;;;;;;;;;;4986451;28;20205;-68
2021/04/28 13:01:23;;;;;;;14.95;10.80;;;;;;;;;;4990928;28;20226;-68
2021/04/28 13:03:49;;;;;;;13.55;9.52;;;;;;;;;;4986172;28;20262;-68
2021/04/28 13:06:25;;;;;;;14.40;10.32;;;;;;;;;;4998138;28;20242;-68
2021/04/28 13:08:52;;;;;;;17.02;9.75;;;;;;;;;;4997674;28;20205;-68
2021/04/28 13:11:18;;;;;;;14.43;10.25;;;;;;;;;;4990408;28;20215;-68
2021/04/28 13:13:52;;;;;;;11.88;9.13;;;;;;;;;;5002351;28;20183;-68
2021/04/28 13:16:50;;;;;;;14.55;10.93;;;;;;;;;;4987679;28;20245;-68
2021/04/28 13:19:26;;;;;;;11.30;9.50;;;;;;;;;;4999792;28;20190;-68
2021/04/28 13:21:55;;;;;;;14.45;10.02;;;;;;;;;;4998077;28;20374;-68
2021/04/28 13:24:29;;;;;;;13.75;10.02;;;;;;;;;;4995843;28;20191;-68
2021/04/28 13:27:03;;;;;;;12.77;9.68;;;;;;;;;;4990470;28;20183;-68
2021/04/28 13:29:50;;;;;;;16.30;10.50;;;;;;;;;;4998344;28;20194;-68
2021/04/28 13:32:34;;;;;;;13.73;10.32;;;;;;;;;;4984608;28;20218;-68
2021/04/28 13:35:32;;;;;;;15.85;10.13;;;;;;;;;;4994644;28;20202;-68
2021/04/28 13:37:57;;;;;;;20.63;10.07;;;;;;;;;;4998242;28;20186;-68
2021/04/28 13:40:24;;;;;;;13.75;10.82;;;;;;;;;;4991105;28;20670;-68
2021/04/28 13:42:51;;;;;;;13.23;10.38;;;;;;;;;;4988989;28;20217;-69
2021/04/28 13:45:17;;;;;;;17.92;10.65;;;;;;;;;;4993964;28;20274;-69
2021/04/28 13:47:42;;;;;;;15.45;10.65;;;;;;;;;;4985406;28;20730;-67
2021/04/28 13:50:09;;;;;;;16.42;10.98;;;;;;;;;;4997405;28;20197;-67
2021/04/28 13:52:35;;;;;;;15.68;11.05;;;;;;;;;;4984069;28;20198;-68
2021/04/28 13:55:00;;;;;;;14.02;11.05;;;;;;;;;;4999330;28;20186;-68
2021/04/28 13:57:26;;;;;;;12.70;10.25;;;;;;;;;;4986761;28;20241;-69
2021/04/28 13:59:51;;;;;;;16.85;10.52;;;;;;;;;;4994491;28;20647;-69
2021/04/28 14:02:17;;;;;;;12.80;10.93;;;;;;;;;;4984533;28;20240;-69
2021/04/28 14:04:42;;;;;;;14.98;10.18;;;;;;;;;;4994067;28;20203;-69
2021/04/28 14:07:08;;;;;;;14.40;9.73;;;;;;;;;;4984978;28;20266;-69
2021/04/28 14:09:33;;;;;;;12.43;9.82;;;;;;;;;;4996250;28;20270;-69
2021/04/28 14:11:58;;;;;;;12.93;10.25;;;;;;;;;;4994556;28;20187;-68
2021/04/28 14:14:24;;;;;;;13.73;11.10;;;;;;;;;;4986913;28;20179;-67
2021/04/28 14:16:50;;;;;;;16.85;10.52;;;;;;;;;;4995761;28;20183;-68
2021/04/28 14:19:16;;;;;;;13.55;10.68;;;;;;;;;;4985975;28;20207;-69
2021/04/28 14:21:41;;;;;;;18.70;10.73;;;;;;;;;;5000016;28;20317;-68
2021/04/28 14:24:07;;;;;;;14.93;10.27;;;;;;;;;;4984935;28;20551;-68
2021/04/28 14:26:32;;;;;;;16.38;10.15;;;;;;;;;;4992931;28;20242;-69
2021/04/28 14:28:58;;;;;;;12.98;10.63;;;;;;;;;;4987628;28;20717;-68
2021/04/28 14:31:23;;;;;;;14.52;10.30;;;;;;;;;;4994427;28;20187;-68
2021/04/28 14:33:48;;;;;;;14.07;10.60;;;;;;;;;;4986227;28;20234;-69
2021/04/28 14:36:14;;;;;;;13.57;10.80;;;;;;;;;;4994595;28;20257;-69
2021/04/28 14:38:40;;;;;;;17.08;11.10;;;;;;;;;;4986050;28;20306;-68
2021/04/28 14:41:05;;;;;;;12.93;10.35;;;;;;;;;;4994252;28;20728;-68